Time;durP1;ratioP1;P1;durP2;ratioP2;P2;SDS_P1;SDS_P2;PMS_P1;PMS_P2;Temp;Humidity;BMP_temperature;BMP_pressure;BME280_temperature;BME280_humidity;BME280_pressure;Samples;Min_cycle;Max_cycle;Signal;HPM_P1;HPM_P2
2023/12/09 00:01:19;;;;;;;16.88;12.20;;;9.80;79.60;;;;;;5014545;28;20037;-79
2023/12/09 00:03:45;;;;;;;18.17;11.95;;;9.70;79.50;;;;;;5014908;28;20034;-80
2023/12/09 00:06:11;;;;;;;19.00;11.75;;;9.80;79.70;;;;;;5014682;28;20384;-78
2023/12/09 00:08:37;;;;;;;15.75;11.70;;;9.80;79.60;;;;;;5014121;28;20030;-79
2023/12/09 00:11:03;;;;;;;15.48;11.35;;;9.80;80.00;;;;;;5014031;28;20053;-80
2023/12/09 00:13:30;;;;;;;16.80;12.27;;;9.80;79.80;;;;;;5025799;28;20040;-79
2023/12/09 00:15:56;;;;;;;18.98;11.32;;;9.70;79.30;;;;;;5033888;28;20124;-77
2023/12/09 00:18:21;;;;;;;14.88;11.68;;;9.70;79.40;;;;;;5033783;28;20123;-80
2023/12/09 00:20:47;;;;;;;17.92;11.80;;;9.70;79.40;;;;;;5033442;28;20055;-79
2023/12/09 00:23:13;;;;;;;15.40;11.18;;;9.80;79.50;;;;;;5032235;28;20037;-80
2023/12/09 00:25:39;;;;;;;18.45;11.52;;;9.80;79.60;;;;;;5033325;28;20025;-80
2023/12/09 00:28:05;;;;;;;18.05;11.27;;;9.80;79.70;;;;;;5033417;28;20095;-78
2023/12/09 00:30:30;;;;;;;14.98;10.93;;;9.80;79.90;;;;;;5033390;28;20037;-78
2023/12/09 00:32:56;;;;;;;17.50;11.68;;;9.80;79.80;;;;;;5033358;28;20080;-79
2023/12/09 00:35:22;;;;;;;15.82;10.80;;;9.80;79.80;;;;;;5033386;28;20388;-78
2023/12/09 00:37:47;;;;;;;14.52;11.40;;;9.80;79.30;;;;;;5033370;28;20109;-77
2023/12/09 00:40:13;;;;;;;15.32;11.35;;;9.80;79.70;;;;;;5032951;28;20430;-77
2023/12/09 00:42:39;;;;;;;13.77;10.00;;;9.80;79.40;;;;;;5033313;28;20129;-78
2023/12/09 00:45:06;;;;;;;14.82;11.00;;;9.80;79.60;;;;;;5032936;28;20058;-78
2023/12/09 00:47:31;;;;;;;13.38;10.27;;;9.80;80.10;;;;;;5033064;28;20510;-78
2023/12/09 00:49:57;;;;;;;14.93;10.82;;;9.70;80.00;;;;;;5033214;28;20037;-79
2023/12/09 00:52:22;;;;;;;14.02;10.27;;;9.70;80.00;;;;;;5032904;28;20026;-79
2023/12/09 00:54:48;;;;;;;13.63;10.40;;;9.60;80.10;;;;;;5032774;28;20522;-79
2023/12/09 00:57:14;;;;;;;13.05;10.13;;;9.70;80.00;;;;;;5032707;28;20079;-79
2023/12/09 00:59:40;;;;;;;13.48;10.40;;;9.60;79.90;;;;;;5032663;28;20029;-79
2023/12/09 01:02:05;;;;;;;17.17;10.73;;;9.70;80.70;;;;;;5033263;28;20402;-79
2023/12/09 01:04:31;;;;;;;12.95;9.75;;;9.70;79.70;;;;;;5032838;28;20033;-77
2023/12/09 01:06:57;;;;;;;14.45;10.35;;;9.70;79.70;;;;;;5032835;28;20033;-78
2023/12/09 01:09:23;;;;;;;14.98;11.07;;;9.70;79.90;;;;;;5032803;28;20029;-80
2023/12/09 01:11:48;;;;;;;13.85;10.20;;;9.60;79.70;;;;;;5032863;28;20111;-78
2023/12/09 01:14:14;;;;;;;13.95;10.30;;;9.70;79.80;;;;;;5032543;28;20033;-79
2023/12/09 01:16:40;;;;;;;13.77;10.18;;;9.70;79.70;;;;;;5032773;28;20048;-79
2023/12/09 01:19:06;;;;;;;14.48;9.82;;;9.70;79.60;;;;;;5032531;28;20446;-77
2023/12/09 01:21:32;;;;;;;16.13;10.45;;;9.70;79.60;;;;;;5032402;28;20057;-78
2023/12/09 01:23:58;;;;;;;13.85;9.60;;;9.70;79.80;;;;;;5032821;28;20045;-78
2023/12/09 01:26:24;;;;;;;13.00;9.68;;;9.70;79.50;;;;;;5032485;28;20052;-80
2023/12/09 01:28:49;;;;;;;15.68;10.38;;;9.70;80.00;;;;;;5032222;28;20510;-78
2023/12/09 01:31:15;;;;;;;14.48;10.32;;;9.60;79.70;;;;;;5033523;28;20064;-79
2023/12/09 01:33:41;;;;;;;12.73;9.60;;;9.60;79.70;;;;;;5036791;28;20559;-79
2023/12/09 01:36:07;;;;;;;14.13;10.55;;;9.60;79.40;;;;;;5036538;28;20555;-78
2023/12/09 01:38:33;;;;;;;13.25;9.80;;;9.60;80.20;;;;;;5036429;28;20068;-77
2023/12/09 01:40:58;;;;;;;13.02;9.80;;;9.60;79.40;;;;;;5036495;28;20057;-76
2023/12/09 01:43:24;;;;;;;15.55;10.30;;;9.60;79.50;;;;;;5036400;28;20033;-77
2023/12/09 01:45:55;;;;;;;14.50;9.98;;;9.70;79.30;;;;;;5036489;28;20129;-77
2023/12/09 01:48:22;;;;;;;13.85;9.75;;;9.60;79.10;;;;;;5036386;28;20112;-78
2023/12/09 01:50:49;;;;;;;13.80;10.32;;;9.60;79.30;;;;;;5036191;28;20499;-78
2023/12/09 01:53:15;;;;;;;15.23;10.60;;;9.60;79.40;;;;;;5036134;28;20040;-78
2023/12/09 01:55:42;;;;;;;17.90;10.60;;;9.50;79.60;;;;;;5036515;28;20069;-78
2023/12/09 01:58:09;;;;;;;14.80;11.00;;;9.50;79.60;;;;;;5036204;28;20053;-78
2023/12/09 02:00:36;;;;;;;14.18;10.27;;;9.50;79.50;;;;;;5035154;28;20040;-77
2023/12/09 02:03:02;;;;;;;16.05;10.68;;;9.50;79.40;;;;;;5036053;28;20033;-78
2023/12/09 02:05:28;;;;;;;15.63;10.63;;;9.50;79.60;;;;;;5036113;28;20040;-77
2023/12/09 02:07:53;;;;;;;14.50;10.15;;;9.40;79.40;;;;;;5035814;28;20037;-78
2023/12/09 02:10:19;;;;;;;15.52;10.93;;;9.40;79.80;;;;;;5035775;28;20041;-79
2023/12/09 02:13:07;;;;;;;13.57;10.27;;;9.40;79.30;;;;;;5035804;28;20065;-78
2023/12/09 02:15:42;;;;;;;14.82;10.52;;;9.40;79.10;;;;;;5035225;28;20049;-78
2023/12/09 02:18:08;;;;;;;13.20;9.68;;;9.30;78.90;;;;;;5035778;28;20401;-79
2023/12/09 02:20:34;;;;;;;14.02;9.90;;;9.30;79.00;;;;;;5035640;28;20043;-79
2023/12/09 02:23:08;;;;;;;12.60;9.07;;;9.40;79.40;;;;;;5035280;28;20036;-79
2023/12/09 02:25:34;;;;;;;13.80;10.13;;;9.40;80.40;;;;;;5035398;28;20030;-77
2023/12/09 02:28:16;;;;;;;15.32;9.77;;;9.40;79.40;;;;;;5035542;28;20458;-79
2023/12/09 02:31:06;;;;;;;13.70;9.70;;;9.40;80.80;;;;;;5035402;28;20096;-78
2023/12/09 02:33:34;;;;;;;13.98;10.18;;;9.50;79.80;;;;;;5035464;28;20080;-79
2023/12/09 02:36:01;;;;;;;12.95;9.35;;;9.50;79.40;;;;;;5036171;28;20073;-78
2023/12/09 02:38:29;;;;;;;14.57;10.23;;;9.50;79.20;;;;;;5035781;28;20053;-78
2023/12/09 02:40:56;;;;;;;13.00;10.00;;;9.50;79.20;;;;;;5035090;28;20072;-79
2023/12/09 02:43:21;;;;;;;15.55;9.52;;;9.40;79.20;;;;;;5035405;28;20088;-79
2023/12/09 02:45:47;;;;;;;13.05;9.43;;;9.40;79.10;;;;;;5034938;28;20042;-78
2023/12/09 02:48:13;;;;;;;13.90;9.60;;;9.40;79.40;;;;;;5035001;28;20022;-78
2023/12/09 02:50:39;;;;;;;14.40;9.68;;;9.40;79.50;;;;;;5034896;28;20442;-78
2023/12/09 02:53:05;;;;;;;13.05;9.43;;;9.40;79.70;;;;;;5035021;28;20028;-77
2023/12/09 02:55:30;;;;;;;13.13;9.77;;;9.40;79.70;;;;;;5034873;28;20096;-78
2023/12/09 02:57:56;;;;;;;13.50;9.90;;;9.40;79.90;;;;;;5034795;28;20095;-78
2023/12/09 03:00:22;;;;;;;14.35;9.40;;;9.40;79.70;;;;;;5034975;28;20038;-77
2023/12/09 03:02:47;;;;;;;12.65;9.75;;;9.30;79.80;;;;;;5033506;28;20031;-78
2023/12/09 03:05:13;;;;;;;13.55;9.75;;;9.40;79.80;;;;;;5034602;28;20582;-77
2023/12/09 03:07:39;;;;;;;13.57;9.50;;;9.40;79.80;;;;;;5034419;28;20426;-78
2023/12/09 03:10:05;;;;;;;14.93;9.68;;;9.40;79.50;;;;;;5034345;28;20057;-78
2023/12/09 03:12:31;;;;;;;13.93;9.82;;;9.30;79.30;;;;;;5034611;28;20120;-78
2023/12/09 03:14:57;;;;;;;14.95;9.75;;;9.30;79.10;;;;;;5034462;28;20045;-78
2023/12/09 03:17:24;;;;;;;15.30;11.35;;;9.40;79.10;;;;;;5034663;28;20061;-78
2023/12/09 03:19:50;;;;;;;13.52;9.68;;;9.30;79.30;;;;;;5034538;28;20519;-77
2023/12/09 03:22:15;;;;;;;14.07;9.95;;;9.30;79.70;;;;;;5034351;28;20022;-79
2023/12/09 03:24:44;;;;;;;14.70;10.05;;;9.30;79.70;;;;;;5033172;28;20033;-79
2023/12/09 03:27:10;;;;;;;13.45;10.10;;;9.30;79.80;;;;;;5033176;28;20107;-77
2023/12/09 03:29:36;;;;;;;14.82;9.63;;;9.30;80.10;;;;;;5034119;28;20034;-79
2023/12/09 03:32:02;;;;;;;13.30;9.57;;;9.20;80.10;;;;;;5034089;28;20061;-78
2023/12/09 03:34:28;;;;;;;15.02;10.00;;;9.30;79.70;;;;;;5034271;28;20084;-79
2023/12/09 03:36:53;;;;;;;14.35;9.85;;;9.30;79.70;;;;;;5034209;28;20121;-78
2023/12/09 03:39:19;;;;;;;14.13;9.35;;;9.30;79.80;;;;;;5033969;28;20111;-78
2023/12/09 03:41:45;;;;;;;12.40;8.95;;;9.30;79.90;;;;;;5034324;28;20047;-78
2023/12/09 03:44:11;;;;;;;13.63;9.73;;;9.30;80.00;;;;;;5034091;28;20061;-77
2023/12/09 03:46:37;;;;;;;12.63;9.07;;;9.20;80.50;;;;;;5033896;28;20030;-77
2023/12/09 03:49:02;;;;;;;14.35;9.50;;;9.20;79.90;;;;;;4995608;28;20416;-78
2023/12/09 03:51:28;;;;;;;12.60;8.48;;;9.20;79.90;;;;;;5003911;28;20034;-77
2023/12/09 03:53:54;;;;;;;11.88;9.02;;;9.20;79.90;;;;;;5013582;28;20044;-77
2023/12/09 03:56:21;;;;;;;14.05;9.55;;;9.20;80.10;;;;;;5013850;28;20042;-78
2023/12/09 03:58:47;;;;;;;13.85;9.32;;;9.20;80.10;;;;;;4998238;28;20034;-78
2023/12/09 04:01:13;;;;;;;11.20;8.30;;;9.20;79.80;;;;;;5012646;28;20033;-77
2023/12/09 04:03:39;;;;;;;12.82;9.10;;;9.20;79.90;;;;;;5013998;28;20033;-77
2023/12/09 04:06:05;;;;;;;13.38;9.63;;;9.10;79.90;;;;;;4997483;28;20039;-78
2023/12/09 04:08:31;;;;;;;11.95;9.32;;;9.10;79.70;;;;;;4994534;28;20485;-77
2023/12/09 04:10:57;;;;;;;15.43;9.43;;;9.10;79.80;;;;;;4994018;28;20026;-78
2023/12/09 04:13:23;;;;;;;10.80;7.93;;;9.10;80.20;;;;;;4994011;28;20041;-77
2023/12/09 04:15:48;;;;;;;12.15;8.68;;;9.10;79.90;;;;;;4996556;28;20065;-79
2023/12/09 04:18:14;;;;;;;11.95;8.55;;;9.10;80.20;;;;;;5013570;28;20091;-78
2023/12/09 04:20:40;;;;;;;12.48;8.82;;;9.10;80.00;;;;;;5013440;28;20543;-77
2023/12/09 04:23:06;;;;;;;12.55;7.85;;;9.00;79.90;;;;;;5003649;28;20122;-77
2023/12/09 04:25:31;;;;;;;12.05;8.85;;;9.00;79.90;;;;;;4993928;28;20038;-77
2023/12/09 04:27:57;;;;;;;11.00;7.97;;;9.00;79.80;;;;;;4993759;28;20038;-78
2023/12/09 04:30:23;;;;;;;11.13;7.97;;;8.90;79.80;;;;;;4993791;28;20034;-77
2023/12/09 04:32:49;;;;;;;11.80;8.10;;;8.90;80.00;;;;;;4992478;28;20085;-79
2023/12/09 04:35:14;;;;;;;12.02;8.23;;;8.90;80.00;;;;;;4993885;28;20042;-77
2023/12/09 04:37:40;;;;;;;10.90;8.15;;;8.90;79.80;;;;;;4993818;28;20030;-79
2023/12/09 04:40:13;;;;;;;12.48;8.30;;;8.90;80.70;;;;;;4993663;28;20045;-79
2023/12/09 04:42:40;;;;;;;11.73;8.68;;;8.80;80.30;;;;;;4993496;28;20057;-79
2023/12/09 04:45:06;;;;;;;11.43;8.25;;;8.70;80.20;;;;;;4993452;28;20034;-77
2023/12/09 04:47:33;;;;;;;13.07;7.90;;;8.70;80.40;;;;;;4993352;28;20034;-79
2023/12/09 04:49:59;;;;;;;12.25;8.13;;;8.70;80.10;;;;;;4993315;28;20041;-77
2023/12/09 04:52:25;;;;;;;12.40;8.70;;;8.70;80.60;;;;;;4993347;28;20026;-79
2023/12/09 04:54:51;;;;;;;12.63;8.30;;;8.70;80.60;;;;;;4993004;28;20412;-78
2023/12/09 04:57:17;;;;;;;13.55;8.65;;;8.70;80.40;;;;;;4993091;28;20060;-78
2023/12/09 04:59:43;;;;;;;12.07;8.63;;;8.70;80.30;;;;;;4993040;28;20033;-78
2023/12/09 05:02:09;;;;;;;13.15;8.15;;;8.70;80.40;;;;;;4993297;28;20404;-77
2023/12/09 05:04:35;;;;;;;11.32;7.93;;;8.60;80.40;;;;;;4993389;28;20034;-77
2023/12/09 05:07:01;;;;;;;11.45;7.90;;;8.50;80.60;;;;;;4992547;28;20113;-79
2023/12/09 05:09:27;;;;;;;12.60;8.30;;;8.50;81.00;;;;;;4993264;28;20038;-79
2023/12/09 05:11:52;;;;;;;12.85;7.78;;;8.50;80.90;;;;;;4992855;28;20042;-78
2023/12/09 05:14:18;;;;;;;10.73;7.65;;;8.40;81.00;;;;;;4994077;28;20031;-79
2023/12/09 05:16:44;;;;;;;10.82;7.57;;;8.40;81.00;;;;;;4993557;28;20034;-79
2023/12/09 05:19:10;;;;;;;10.63;7.75;;;8.40;81.00;;;;;;4993347;28;20026;-78
2023/12/09 05:21:36;;;;;;;12.38;7.82;;;8.40;81.00;;;;;;4993023;28;20510;-78
2023/12/09 05:24:02;;;;;;;11.50;7.55;;;8.40;80.80;;;;;;4993088;28;20034;-78
2023/12/09 05:26:29;;;;;;;11.57;8.25;;;8.40;81.20;;;;;;4993000;28;20121;-78
2023/12/09 05:28:56;;;;;;;10.48;7.57;;;8.40;81.00;;;;;;4993142;28;20038;-79
2023/12/09 05:31:22;;;;;;;12.10;8.45;;;8.40;81.00;;;;;;4993468;28;20457;-78
2023/12/09 05:33:49;;;;;;;11.48;7.70;;;8.40;81.00;;;;;;4993241;28;20069;-77
2023/12/09 05:36:15;;;;;;;12.55;7.93;;;8.40;81.30;;;;;;4992968;28;20046;-77
2023/12/09 05:38:41;;;;;;;10.60;7.50;;;8.40;81.20;;;;;;4991867;28;20030;-77
2023/12/09 05:41:08;;;;;;;10.60;7.38;;;8.40;80.80;;;;;;4993051;28;20046;-77
2023/12/09 05:43:38;;;;;;;10.88;7.43;;;8.40;81.30;;;;;;4993011;28;20027;-78
2023/12/09 05:46:04;;;;;;;12.57;8.10;;;8.40;81.00;;;;;;4992970;28;20046;-78
2023/12/09 05:48:35;;;;;;;12.05;7.45;;;8.40;81.00;;;;;;4993057;28;20035;-78
2023/12/09 05:51:01;;;;;;;11.02;7.40;;;8.40;80.80;;;;;;4992965;28;20077;-76
2023/12/09 05:53:27;;;;;;;12.18;7.00;;;8.50;80.90;;;;;;4993090;28;20035;-78
2023/12/09 05:55:53;;;;;;;10.80;7.32;;;8.50;80.90;;;;;;4993011;28;20045;-77
2023/12/09 05:58:18;;;;;;;11.18;7.47;;;8.60;80.80;;;;;;4992931;28;20031;-79
2023/12/09 06:00:44;;;;;;;11.48;7.63;;;8.60;80.90;;;;;;4992612;28;20106;-77
2023/12/09 06:03:10;;;;;;;10.30;7.18;;;8.50;80.20;;;;;;4992361;28;20481;-79
2023/12/09 06:05:36;;;;;;;12.82;7.45;;;8.50;80.20;;;;;;4992653;28;20045;-76
2023/12/09 06:08:02;;;;;;;9.70;6.63;;;8.50;80.30;;;;;;4992544;28;20062;-78
2023/12/09 06:10:27;;;;;;;11.88;7.07;;;8.60;80.60;;;;;;4992904;28;20034;-79
2023/12/09 06:12:53;;;;;;;9.23;6.72;;;8.60;80.40;;;;;;4992671;28;20043;-80
2023/12/09 06:15:19;;;;;;;10.73;7.35;;;8.60;80.80;;;;;;4992712;28;20054;-80
2023/12/09 06:17:44;;;;;;;10.98;7.15;;;8.60;80.30;;;;;;4994505;28;20086;-79
2023/12/09 06:20:10;;;;;;;11.82;7.05;;;8.60;80.00;;;;;;4996252;28;20470;-79
2023/12/09 06:22:36;;;;;;;12.05;7.00;;;8.50;80.00;;;;;;4995577;28;20047;-78
2023/12/09 06:25:02;;;;;;;12.52;7.03;;;8.50;79.80;;;;;;4995899;28;20057;-78
2023/12/09 06:27:28;;;;;;;12.80;7.53;;;8.60;80.10;;;;;;4995672;28;20089;-79
2023/12/09 06:29:53;;;;;;;11.80;7.43;;;8.60;79.90;;;;;;4996108;28;20038;-78
2023/12/09 06:32:19;;;;;;;8.60;6.53;;;8.70;79.70;;;;;;4996029;28;20026;-79
2023/12/09 06:34:45;;;;;;;11.77;7.75;;;8.70;79.70;;;;;;4996118;28;20044;-78
2023/12/09 06:37:11;;;;;;;12.18;7.18;;;8.70;79.90;;;;;;4996123;28;20035;-80
2023/12/09 06:39:36;;;;;;;11.85;7.10;;;8.70;79.70;;;;;;4996406;28;20093;-80
2023/12/09 06:42:03;;;;;;;10.82;7.32;;;8.70;79.70;;;;;;4996075;28;20530;-76
2023/12/09 06:44:28;;;;;;;10.93;7.10;;;8.70;79.70;;;;;;4995801;28;20031;-77
2023/12/09 06:46:54;;;;;;;12.40;7.32;;;8.70;79.40;;;;;;4996090;28;20113;-78
2023/12/09 06:49:20;;;;;;;11.80;7.28;;;8.80;79.40;;;;;;4995811;28;20117;-79
2023/12/09 06:51:47;;;;;;;11.80;7.45;;;8.90;79.10;;;;;;4995699;28;20022;-78
2023/12/09 06:54:13;;;;;;;12.90;6.90;;;9.30;78.90;;;;;;4996198;28;20068;-82
2023/12/09 06:56:39;;;;;;;12.75;7.15;;;9.60;77.70;;;;;;4995715;28;20090;-80
2023/12/09 06:59:05;;;;;;;12.48;7.97;;;9.60;77.00;;;;;;4995653;28;20037;-79
2023/12/09 07:01:30;;;;;;;14.15;7.70;;;9.50;77.10;;;;;;4995575;28;20424;-78
2023/12/09 07:03:56;;;;;;;11.32;8.07;;;9.40;78.00;;;;;;4995798;28;20049;-78
2023/12/09 07:06:27;;;;;;;15.07;8.68;;;9.30;77.60;;;;;;4995546;28;20050;-79
2023/12/09 07:08:54;;;;;;;12.75;8.20;;;9.20;77.80;;;;;;4995486;28;20054;-79
2023/12/09 07:11:21;;;;;;;13.55;8.25;;;9.20;77.90;;;;;;4995205;28;20109;-78
2023/12/09 07:13:47;;;;;;;11.57;7.50;;;9.20;77.80;;;;;;4995339;28;20026;-80
2023/12/09 07:16:13;;;;;;;13.02;8.45;;;9.30;77.80;;;;;;4993845;28;20065;-77
2023/12/09 07:18:48;;;;;;;12.38;8.52;;;9.70;77.00;;;;;;4995544;28;20035;-79
2023/12/09 07:21:14;;;;;;;11.90;8.60;;;10.10;75.00;;;;;;4995282;28;20044;-78
2023/12/09 07:23:40;;;;;;;14.40;8.70;;;10.40;74.30;;;;;;4995826;28;20044;-80
2023/12/09 07:26:06;;;;;;;13.65;8.55;;;10.90;73.40;;;;;;4994477;28;20452;-79
2023/12/09 07:28:33;;;;;;;12.60;8.50;;;10.90;72.70;;;;;;4994093;28;20026;-79
2023/12/09 07:30:59;;;;;;;14.40;9.20;;;10.60;72.80;;;;;;4994912;28;20081;-78
2023/12/09 07:33:24;;;;;;;13.55;9.02;;;10.30;73.60;;;;;;4994802;28;20054;-80
2023/12/09 07:35:50;;;;;;;13.88;9.27;;;10.00;74.30;;;;;;4994541;28;20051;-79
2023/12/09 07:38:16;;;;;;;14.05;8.98;;;9.80;75.80;;;;;;4994533;28;20162;-79
2023/12/09 07:40:41;;;;;;;14.23;9.20;;;9.60;76.30;;;;;;4994931;28;20081;-79
2023/12/09 07:43:08;;;;;;;14.63;8.50;;;9.50;77.00;;;;;;4994509;28;20041;-78
2023/12/09 07:45:34;;;;;;;13.52;9.23;;;9.40;76.90;;;;;;4994334;28;20049;-78
2023/12/09 07:48:00;;;;;;;17.23;9.77;;;9.40;77.20;;;;;;4994590;28;20034;-78
2023/12/09 07:50:26;;;;;;;16.95;10.02;;;9.40;77.20;;;;;;4994698;28;20476;-80
2023/12/09 07:52:52;;;;;;;12.73;8.50;;;9.40;77.20;;;;;;4994838;28;20058;-84
2023/12/09 07:55:17;;;;;;;14.75;9.38;;;9.40;77.30;;;;;;4994613;28;20070;-80
2023/12/09 07:57:43;;;;;;;13.57;9.30;;;9.40;77.20;;;;;;4993787;28;20060;-77
2023/12/09 08:00:12;;;;;;;13.00;8.50;;;9.40;77.00;;;;;;4994756;28;20058;-81
2023/12/09 08:02:38;;;;;;;13.23;8.77;;;9.40;77.20;;;;;;4993947;28;20035;-78
2023/12/09 08:05:04;;;;;;;13.38;9.15;;;9.40;77.20;;;;;;4994295;28;20041;-75
2023/12/09 08:07:30;;;;;;;17.23;9.07;;;9.40;77.20;;;;;;4993076;28;20342;-81
2023/12/09 08:09:55;;;;;;;16.35;8.57;;;9.40;76.80;;;;;;4994453;28;20148;-76
2023/12/09 08:12:21;;;;;;;11.23;7.57;;;9.40;76.70;;;;;;4993983;28;20053;-76
2023/12/09 08:14:47;;;;;;;13.52;8.40;;;9.50;76.90;;;;;;4993805;28;20502;-81
2023/12/09 08:17:12;;;;;;;11.27;8.38;;;9.50;76.80;;;;;;4993987;28;20129;-77
2023/12/09 08:19:38;;;;;;;14.85;8.73;;;9.50;76.60;;;;;;4993834;28;20038;-77
2023/12/09 08:22:04;;;;;;;16.10;8.13;;;9.50;76.40;;;;;;4994068;28;20026;-80
2023/12/09 08:24:30;;;;;;;14.30;8.85;;;9.40;76.50;;;;;;5011778;28;20037;-79
2023/12/09 08:26:55;;;;;;;11.43;8.10;;;9.40;76.80;;;;;;5012015;28;20447;-79
2023/12/09 08:29:21;;;;;;;11.45;7.60;;;9.40;76.80;;;;;;5013057;28;20041;-78
2023/12/09 08:31:49;;;;;;;12.23;7.57;;;9.40;76.70;;;;;;5012841;28;20479;-80
2023/12/09 08:34:18;;;;;;;10.98;7.88;;;9.40;76.40;;;;;;5012656;28;20045;-80
2023/12/09 08:36:44;;;;;;;10.38;7.60;;;9.50;76.50;;;;;;5009747;28;20368;-77
2023/12/09 08:39:14;;;;;;;12.45;7.57;;;9.60;76.10;;;;;;5012985;28;20054;-81
2023/12/09 08:41:39;;;;;;;12.77;7.88;;;9.60;76.20;;;;;;5010106;28;20037;-81
2023/12/09 08:44:06;;;;;;;12.75;7.93;;;9.60;76.10;;;;;;5012900;28;20034;-72
2023/12/09 08:46:32;;;;;;;12.98;7.60;;;9.60;75.80;;;;;;5012337;28;20105;-81
2023/12/09 08:48:58;;;;;;;11.57;7.28;;;9.70;75.80;;;;;;5012562;28;20117;-78
2023/12/09 08:51:23;;;;;;;14.13;8.00;;;9.80;75.80;;;;;;5012867;28;20037;-76
2023/12/09 08:53:50;;;;;;;12.57;7.85;;;9.90;75.60;;;;;;5013267;28;20514;-74
2023/12/09 08:56:16;;;;;;;13.25;8.38;;;10.00;74.60;;;;;;5012392;28;20052;-74
2023/12/09 08:58:41;;;;;;;11.23;8.13;;;10.10;74.20;;;;;;5003852;28;20732;-76
2023/12/09 09:01:08;;;;;;;14.38;8.05;;;10.20;74.10;;;;;;5012353;28;20037;-82
2023/12/09 09:03:33;;;;;;;14.07;7.90;;;10.30;74.10;;;;;;5012946;28;20112;-77
2023/12/09 09:05:59;;;;;;;13.88;7.32;;;10.40;73.90;;;;;;5012716;28;20109;-80
2023/12/09 09:08:25;;;;;;;11.50;6.95;;;10.50;73.70;;;;;;5013241;28;20069;-80
2023/12/09 09:10:51;;;;;;;10.27;6.78;;;10.50;73.60;;;;;;5012255;28;20456;-77
2023/12/09 09:13:17;;;;;;;11.20;6.82;;;10.70;73.50;;;;;;5012950;28;20095;-78
2023/12/09 09:15:42;;;;;;;10.32;6.75;;;10.80;73.20;;;;;;5011623;28;20044;-79
2023/12/09 09:18:08;;;;;;;10.05;6.47;;;10.90;73.00;;;;;;5012902;28;20045;-78
2023/12/09 09:20:34;;;;;;;10.20;7.00;;;11.00;73.10;;;;;;5012759;28;20037;-77
2023/12/09 09:23:00;;;;;;;12.95;7.10;;;11.00;72.40;;;;;;5012624;28;20113;-78
2023/12/09 09:25:26;;;;;;;9.82;7.10;;;11.10;72.30;;;;;;5012738;28;20124;-78
2023/12/09 09:27:52;;;;;;;12.02;6.70;;;11.20;72.30;;;;;;5012057;28;20044;-76
2023/12/09 09:30:22;;;;;;;9.93;6.55;;;11.20;72.00;;;;;;5013825;28;20045;-76
2023/12/09 09:32:48;;;;;;;10.95;6.30;;;11.30;72.40;;;;;;5012267;28;20046;-77
2023/12/09 09:35:13;;;;;;;9.95;5.75;;;11.40;71.90;;;;;;5011568;28;20491;-77
2023/12/09 09:37:39;;;;;;;9.68;5.93;;;11.50;71.30;;;;;;5012043;28;20488;-75
2023/12/09 09:40:06;;;;;;;10.30;6.45;;;11.50;71.10;;;;;;5012029;28;20462;-76
2023/12/09 09:42:42;;;;;;;9.00;6.00;;;11.60;70.90;;;;;;5012288;28;20038;-76
2023/12/09 09:45:17;;;;;;;13.60;6.07;;;11.70;70.70;;;;;;5011935;28;20034;-75
2023/12/09 09:47:43;;;;;;;10.15;6.80;;;11.70;70.20;;;;;;5011993;28;20584;-78
2023/12/09 09:50:10;;;;;;;12.65;6.35;;;11.80;70.20;;;;;;5005626;28;20117;-76
2023/12/09 09:52:37;;;;;;;12.13;6.43;;;11.90;69.90;;;;;;5012266;28;20060;-77
2023/12/09 09:55:06;;;;;;;8.98;6.53;;;11.90;69.00;;;;;;5014366;28;20041;-77
2023/12/09 09:57:33;;;;;;;12.27;7.43;;;11.90;69.20;;;;;;5016486;28;20038;-76
2023/12/09 09:59:59;;;;;;;10.35;6.78;;;11.90;69.30;;;;;;5016165;28;20034;-77
2023/12/09 10:02:26;;;;;;;10.23;7.00;;;12.00;69.40;;;;;;5015729;28;20061;-76
2023/12/09 10:04:52;;;;;;;14.38;6.35;;;12.20;69.40;;;;;;5015784;28;20084;-76
2023/12/09 10:07:19;;;;;;;7.60;5.50;;;12.20;69.00;;;;;;5016022;28;20038;-76
2023/12/09 10:09:46;;;;;;;9.88;6.20;;;12.20;68.80;;;;;;5015907;28;20036;-77
2023/12/09 10:12:12;;;;;;;10.75;6.30;;;12.30;68.80;;;;;;5016089;28;20480;-77
2023/12/09 10:14:37;;;;;;;10.80;5.95;;;12.40;68.50;;;;;;5015691;28;20117;-75
2023/12/09 10:17:03;;;;;;;11.57;5.68;;;12.50;68.50;;;;;;5015720;28;20053;-76
2023/12/09 10:19:29;;;;;;;10.32;5.80;;;12.50;67.70;;;;;;5015538;28;20110;-75
2023/12/09 10:21:55;;;;;;;9.77;5.47;;;12.60;67.60;;;;;;5015853;28;20554;-76
2023/12/09 10:24:20;;;;;;;11.30;5.82;;;12.60;67.60;;;;;;5016109;28;20057;-77
2023/12/09 10:26:46;;;;;;;10.68;5.70;;;12.70;67.40;;;;;;5015667;28;20044;-76
2023/12/09 10:29:12;;;;;;;8.95;5.05;;;12.80;66.50;;;;;;5015734;28;20087;-76
2023/12/09 10:31:38;;;;;;;10.90;5.82;;;12.80;66.30;;;;;;5015284;28;20026;-74
2023/12/09 10:34:04;;;;;;;7.75;5.25;;;12.80;65.90;;;;;;5015484;28;20455;-71
2023/12/09 10:36:30;;;;;;;9.18;5.57;;;12.90;65.90;;;;;;5015290;28;20129;-74
2023/12/09 10:38:56;;;;;;;7.57;4.70;;;12.90;65.10;;;;;;5015219;28;20395;-76
2023/12/09 10:41:25;;;;;;;7.90;4.55;;;13.00;65.40;;;;;;5015596;28;20121;-77
2023/12/09 10:43:56;;;;;;;7.22;4.53;;;13.00;64.90;;;;;;5015301;28;20034;-76
2023/12/09 10:46:22;;;;;;;7.55;4.95;;;13.00;64.80;;;;;;5015132;28;20061;-76
2023/12/09 10:48:48;;;;;;;7.03;4.90;;;13.10;64.60;;;;;;5015226;28;20030;-75
2023/12/09 10:51:14;;;;;;;9.70;4.93;;;13.20;64.20;;;;;;5014983;28;20108;-75
2023/12/09 10:53:43;;;;;;;13.10;5.55;;;13.30;64.40;;;;;;5015187;28;20451;-77
2023/12/09 10:56:09;;;;;;;8.05;5.00;;;13.30;64.30;;;;;;5014808;28;20530;-77
2023/12/09 10:58:36;;;;;;;7.90;4.53;;;13.40;64.00;;;;;;5014904;28;20038;-76
2023/12/09 11:01:03;;;;;;;8.23;4.68;;;13.50;63.30;;;;;;5014646;28;20034;-76
2023/12/09 11:03:29;;;;;;;7.13;4.78;;;13.60;63.00;;;;;;5013746;28;20121;-76
2023/12/09 11:05:58;;;;;;;8.07;5.05;;;13.60;62.30;;;;;;5014726;28;20113;-77
2023/12/09 11:08:28;;;;;;;9.73;5.30;;;13.70;62.60;;;;;;5014851;28;20542;-77
2023/12/09 11:10:57;;;;;;;11.63;4.70;;;13.80;62.40;;;;;;5014577;28;20557;-78
2023/12/09 11:13:29;;;;;;;8.25;5.35;;;13.90;63.20;;;;;;5014579;28;20417;-77
2023/12/09 11:16:18;;;;;;;9.98;4.97;;;13.90;61.70;;;;;;5014721;28;20088;-77
2023/12/09 11:18:54;;;;;;;9.52;4.75;;;13.90;61.90;;;;;;5014906;28;20105;-77
2023/12/09 11:21:22;;;;;;;10.48;4.88;;;14.00;61.40;;;;;;5014377;28;20114;-77
2023/12/09 11:23:52;;;;;;;8.00;4.97;;;14.00;61.50;;;;;;5014492;28;20061;-75
2023/12/09 11:26:38;;;;;;;8.13;4.90;;;14.10;61.50;;;;;;5014563;28;20399;-76
2023/12/09 11:29:09;;;;;;;7.57;4.20;;;14.20;60.70;;;;;;5013933;28;20041;-77
2023/12/09 11:31:37;;;;;;;6.40;3.88;;;14.20;61.60;;;;;;5014514;28;20092;-77
2023/12/09 11:34:16;;;;;;;9.15;5.40;;;14.30;61.00;;;;;;5014383;28;20377;-79
2023/12/09 11:36:43;;;;;;;7.75;4.75;;;14.40;61.30;;;;;;5014596;28;20546;-77
2023/12/09 11:39:17;;;;;;;6.88;4.65;;;14.50;60.80;;;;;;5014109;28;20118;-76
2023/12/09 11:41:44;;;;;;;6.65;4.35;;;14.50;60.90;;;;;;5014478;28;20065;-76
2023/12/09 11:44:11;;;;;;;7.85;4.55;;;14.60;60.00;;;;;;5014239;28;20029;-76
2023/12/09 11:46:38;;;;;;;8.13;4.88;;;14.60;59.70;;;;;;5014175;28;20403;-75
2023/12/09 11:49:05;;;;;;;9.43;4.95;;;14.60;59.80;;;;;;5014448;28;20078;-75
2023/12/09 11:51:33;;;;;;;8.23;4.20;;;14.70;59.80;;;;;;5014082;28;20034;-78
2023/12/09 11:54:04;;;;;;;8.18;4.22;;;14.70;60.00;;;;;;5014446;28;20029;-77
2023/12/09 11:56:30;;;;;;;7.80;4.80;;;14.80;60.20;;;;;;5014407;28;20060;-76
2023/12/09 11:58:56;;;;;;;9.80;4.78;;;14.90;59.80;;;;;;5014246;28;20022;-77
2023/12/09 12:01:23;;;;;;;9.32;4.53;;;14.90;58.90;;;;;;5014119;28;20065;-76
2023/12/09 12:03:49;;;;;;;9.43;5.75;;;15.00;59.00;;;;;;5014195;28;20029;-76
2023/12/09 12:06:19;;;;;;;10.23;4.88;;;15.00;58.50;;;;;;5013822;28;20041;-77
2023/12/09 12:08:49;;;;;;;8.48;4.65;;;15.00;58.40;;;;;;5014134;28;20036;-77
2023/12/09 12:11:16;;;;;;;7.70;4.43;;;15.00;58.30;;;;;;5013966;28;20073;-76
2023/12/09 12:13:43;;;;;;;8.80;4.82;;;15.10;58.50;;;;;;5012732;28;20030;-77
2023/12/09 12:16:09;;;;;;;7.55;4.68;;;15.10;58.10;;;;;;5012263;28;20542;-77
2023/12/09 12:18:35;;;;;;;8.02;4.72;;;15.20;57.90;;;;;;5013883;28;20081;-76
2023/12/09 12:21:02;;;;;;;11.48;4.88;;;15.20;57.40;;;;;;5014591;28;20042;-76
2023/12/09 12:23:29;;;;;;;8.07;5.10;;;15.20;57.60;;;;;;5014127;28;20048;-77
2023/12/09 12:25:55;;;;;;;8.02;4.95;;;15.20;57.40;;;;;;5014191;28;20038;-76
2023/12/09 12:28:22;;;;;;;9.77;4.50;;;15.30;57.50;;;;;;5014604;28;20038;-77
2023/12/09 12:30:56;;;;;;;10.25;4.95;;;15.30;57.70;;;;;;5014005;28;20165;-77
2023/12/09 12:33:26;;;;;;;8.50;4.95;;;15.30;57.60;;;;;;5013561;28;20069;-76
2023/12/09 12:35:55;;;;;;;7.97;5.30;;;15.40;57.50;;;;;;5013666;28;20186;-75
2023/12/09 12:38:24;;;;;;;8.00;5.07;;;15.40;57.00;;;;;;5013555;28;20029;-76
2023/12/09 12:40:51;;;;;;;9.45;5.25;;;15.50;57.10;;;;;;5013811;28;20064;-75